Ganges, Canada
Current Conditions -  °F | °C
As of 8:18 AM on Friday 31 Oct 2014 (Local Time) from CYYJ Reporting Station
Light Rain Light Rain  
Wind Chill: 50°   Ceiling: 5600
Heat Index: 50°   Visibility: 10mi
Dew Point: 48°   Wind: 5mph
Humidity: 94%   Direction: 250°WSW
Pressure: 29.73"   Gusts: NA
Location:  48.85°N, 123.52°W
Report Text: CYYJ 311518Z 25004KT 10SM -RA FEW004 FEW009 OVC056 10/09 A2973 RMK SF1SC1SC8 SF TR SC TR SLP069
Loading
Personal Weather Stations






























Interactive Weather Map
Tropical Storm Tracking
New forecast layout! Learn more

10-Day Weather Forecast

Advertisements
Track Severe Weather on mobile